Time;durP1;ratioP1;P1;durP2;ratioP2;P2;SDS_P1;SDS_P2;PMS_P1;PMS_P2;Temp;Humidity;BMP_temperature;BMP_pressure;BME280_temperature;BME280_humidity;BME280_pressure;Samples;Min_cycle;Max_cycle;Signal;HPM_P1;HPM_P2
2022/02/03 00:00:44;;;;;;;97.00;31.10;;;;;;;13.69;100.00;101923.13;4970690;28;20109;-66
2022/02/03 00:03:19;;;;;;;66.95;29.98;;;;;;;13.43;100.00;101919.91;4976077;28;20125;-65
2022/02/03 00:05:49;;;;;;;67.45;31.73;;;;;;;13.48;100.00;101922.84;4976618;28;20062;-65
2022/02/03 00:08:25;;;;;;;65.82;28.88;;;;;;;13.53;100.00;101916.94;4976266;28;20042;-66
2022/02/03 00:24:37;;;;;;;74.00;31.17;;;;;;;13.88;100.00;101909.06;4976668;28;20043;-66
2022/02/03 00:27:12;;;;;;;;;;;;;;;13.82;100.00;101904.41;4976312;28;20081;-65
2022/02/03 00:32:28;;;;;;;69.60;31.08;;;;;;;13.86;100.00;101903.03;4976664;28;20061;-65
2022/02/03 00:35:24;;;;;;;70.60;32.33;;;;;;;14.17;100.00;101903.72;4977412;28;20039;-65
2022/02/03 00:48:54;;;;;;;63.97;31.50;;;;;;;13.61;100.00;101886.41;4975446;28;20046;-64
2022/02/03 00:51:21;;;;;;;71.28;32.45;;;;;;;13.62;100.00;101888.94;4958886;28;20387;-65
2022/02/03 00:53:47;;;;;;;71.70;31.08;;;;;;;13.17;100.00;101880.91;4975144;28;20070;-66
2022/02/03 00:56:23;;;;;;;73.95;33.72;;;;;;;13.61;100.00;101876.53;4975367;28;20106;-66
2022/02/03 00:59:01;;;;;;;67.68;32.35;;;;;;;13.63;100.00;101876.31;4976110;28;20046;-65
2022/02/03 01:01:31;;;;;;;63.17;31.17;;;;;;;13.69;100.00;101877.41;4975875;28;20042;-66
2022/02/03 01:04:05;;;;;;;72.80;33.13;;;;;;;13.70;100.00;101871.81;4980265;28;20045;-65
2022/02/03 01:06:33;;;;;;;72.88;33.63;;;;;;;13.94;100.00;101868.97;4977840;28;20039;-65
2022/02/03 01:08:59;;;;;;;64.53;32.42;;;;;;;13.82;100.00;101871.34;4959954;28;20054;-66
2022/02/03 01:11:33;;;;;;;72.88;34.40;;;;;;;13.60;100.00;101874.00;4976380;28;20043;-66
2022/02/03 01:14:08;;;;;;;75.27;34.57;;;;;;;13.67;100.00;101869.53;4976000;28;20038;-66
2022/02/03 01:19:26;;;;;;;79.93;35.60;;;;;;;13.40;100.00;101871.06;4975796;28;20045;-66
2022/02/03 01:43:56;;;;;;;75.20;33.47;;;;;;;13.54;100.00;101869.41;4980923;28;20044;-66
2022/02/03 01:46:40;;;;;;;72.47;30.92;;;;;;;13.74;100.00;101861.53;4963505;28;20054;-65
2022/02/03 01:49:15;;;;;;;75.63;33.30;;;;;;;13.72;100.00;101858.22;4946624;28;20038;-66
2022/02/03 01:51:55;;;;;;;72.95;32.22;;;;;;;13.84;100.00;101864.75;4964587;28;20291;-66
2022/02/03 01:54:26;;;;;;;74.15;31.42;;;;;;;13.66;100.00;101856.28;4979041;28;20364;-66
2022/02/03 01:57:10;;;;;;;70.00;30.52;;;;;;;13.47;100.00;101858.56;4981504;28;20196;-66
2022/02/03 01:59:36;;;;;;;70.33;32.30;;;;;;;13.30;100.00;101834.59;4965282;28;20062;-66
2022/02/03 02:02:05;;;;;;;71.15;31.15;;;;;;;13.45;100.00;101828.38;4983291;28;20299;-66
2022/02/03 02:04:52;;;;;;;73.77;32.27;;;;;;;13.20;100.00;101842.94;4979503;28;20046;-67
2022/02/03 02:07:25;;;;;;;69.55;31.17;;;;;;;13.52;100.00;101825.75;4976841;28;20645;-66
2022/02/03 02:13:31;;;;;;;70.45;29.45;;;;;;;13.10;100.00;101814.72;4980793;28;20043;-65
2022/02/03 02:38:13;;;;;;;56.47;25.50;;;;;;;12.98;100.00;101812.53;4978095;28;20045;-65
2022/02/03 02:43:34;;;;;;;58.00;25.52;;;;;;;13.26;100.00;101809.13;4982553;28;20050;-65
2022/02/03 02:46:23;;;;;;;61.03;27.58;;;;;;;13.37;100.00;101804.25;4977010;28;20562;-65
2022/02/03 02:49:13;;;;;;;56.97;24.27;;;;;;;13.52;100.00;101810.47;4978477;28;20104;-65
2022/02/03 02:51:50;;;;;;;58.17;23.77;;;;;;;13.11;100.00;101805.63;4978055;28;20436;-65
2022/02/03 03:33:33;;;;;;;44.13;16.88;;;;;;;12.98;100.00;101713.19;4976371;28;20220;-64
2022/02/03 03:36:09;;;;;;;33.60;15.50;;;;;;;12.87;100.00;101705.59;4944913;28;20067;-66
2022/02/03 03:38:36;;;;;;;32.53;15.38;;;;;;;12.87;100.00;101705.59;4976289;28;20506;-65
2022/02/03 03:41:03;;;;;;;33.10;15.93;;;;;;;12.72;100.00;101701.13;4975468;28;20046;-65
2022/02/03 03:43:52;;;;;;;33.55;14.85;;;;;;;12.87;100.00;101708.28;4976071;28;20046;-65
2022/02/03 03:46:25;;;;;;;38.92;16.38;;;;;;;13.03;100.00;101702.69;4975974;28;20051;-67
2022/02/03 03:49:28;;;;;;;36.33;15.55;;;;;;;12.89;100.00;101695.50;4958181;28;20039;-66
2022/02/03 03:52:02;;;;;;;33.45;13.15;;;;;;;12.91;100.00;101685.41;4975637;28;20043;-66
2022/02/03 03:54:41;;;;;;;27.95;12.02;;;;;;;12.72;100.00;101695.75;4958262;28;20050;-65
2022/02/03 03:57:33;;;;;;;49.55;18.15;;;;;;;13.04;100.00;101688.25;4975664;28;20408;-64
2022/02/03 05:01:30;;;;;;;24.65;11.00;;;;;;;12.71;100.00;101639.56;4896056;29;20041;-65
2022/02/03 05:10:44;;;;;;;28.73;11.88;;;;;;;12.62;100.00;101639.69;4954883;29;20082;-66
2022/02/03 05:17:07;;;;;;;26.80;11.65;;;;;;;12.79;100.00;101635.94;4954977;29;20085;-67
2022/02/03 05:23:38;;;;;;;22.45;11.38;;;;;;;12.68;100.00;101624.66;4955125;28;20054;-67
2022/02/03 05:26:12;;;;;;;26.08;11.88;;;;;;;12.69;100.00;101621.00;4946550;29;20051;-67
2022/02/03 05:32:32;;;;;;;24.60;11.75;;;;;;;12.56;100.00;101623.53;4959576;28;20050;-67
2022/02/03 06:05:34;;;;;;;23.40;9.15;;;;;;;12.13;100.00;101584.03;4962320;28;20043;-68
2022/02/03 06:08:52;;;;;;;19.70;7.88;;;;;;;12.07;100.00;101585.63;4977238;28;20412;-67
2022/02/03 06:16:19;;;;;;;14.38;5.75;;;;;;;12.48;100.00;101571.66;4977110;28;20568;-67
2022/02/03 06:23:59;;;;;;;12.23;4.75;;;;;;;12.45;100.00;101541.69;4976940;28;19918;-68
2022/02/03 06:29:14;;;;;;;15.23;5.53;;;;;;;12.34;100.00;101540.31;4977156;28;20126;-66
2022/02/03 06:31:43;;;;;;;16.15;5.22;;;;;;;12.14;100.00;101538.25;4976731;28;20038;-66
2022/02/03 06:34:10;;;;;;;14.13;5.93;;;;;;;12.36;100.00;101540.97;4976466;28;20464;-67
2022/02/03 06:36:37;;;;;;;;;;;;;;;12.22;100.00;101537.31;4927858;28;20499;-66
2022/02/03 06:39:16;;;;;;;16.30;5.93;;;;;;;12.27;100.00;101531.38;4976725;28;20386;-66
2022/02/03 06:41:41;;;;;;;16.15;5.75;;;;;;;12.26;100.00;101535.91;4976661;28;20038;-65
2022/02/03 06:44:08;;;;;;;14.48;5.97;;;;;;;12.21;100.00;101540.16;4976369;28;20375;-65
2022/02/03 06:46:35;;;;;;;14.93;5.78;;;;;;;12.08;100.00;101536.34;4976692;28;20472;-67
2022/02/03 06:49:12;;;;;;;15.27;6.53;;;;;;;12.19;100.00;101530.47;4976791;28;20509;-68
2022/02/03 06:51:46;;;;;;;13.52;7.13;;;;;;;12.25;100.00;101533.44;4959831;28;20476;-67
2022/02/03 06:54:19;;;;;;;16.00;7.00;;;;;;;11.97;100.00;101529.56;4976318;28;20082;-67
2022/02/03 06:56:59;;;;;;;15.90;6.68;;;;;;;12.02;100.00;101515.66;4962521;28;20468;-66
2022/02/03 06:59:35;;;;;;;15.38;7.85;;;;;;;12.04;100.00;101527.00;4963515;28;20042;-66
2022/02/03 07:02:02;;;;;;;13.38;6.05;;;;;;;12.05;100.00;101507.22;4960333;28;20575;-67
2022/02/03 07:04:37;;;;;;;22.33;7.38;;;;;;;12.14;100.00;101510.63;4977362;28;20065;-66
2022/02/03 07:07:02;;;;;;;17.85;6.53;;;;;;;12.02;100.00;101499.56;4959708;28;20052;-66
2022/02/03 07:09:29;;;;;;;17.08;7.82;;;;;;;12.06;100.00;101508.88;4959107;28;20137;-66
2022/02/03 07:11:55;;;;;;;19.00;8.30;;;;;;;11.94;100.00;101500.47;4943723;28;20399;-65
2022/02/03 07:14:22;;;;;;;20.55;8.05;;;;;;;12.01;100.00;101484.50;4959922;28;20035;-67
2022/02/03 07:16:49;;;;;;;20.90;8.68;;;;;;;12.01;100.00;101500.59;4960562;28;20470;-66
2022/02/03 07:19:16;;;;;;;21.40;8.85;;;;;;;11.90;100.00;101497.31;4959666;28;20376;-67
2022/02/03 07:21:42;;;;;;;20.45;9.80;;;;;;;11.97;100.00;101496.56;4976500;28;20463;-66
2022/02/03 07:24:09;;;;;;;23.55;10.80;;;;;;;12.12;100.00;101497.41;4976748;28;20046;-66
2022/02/03 07:26:35;;;;;;;17.05;8.77;;;;;;;12.01;100.00;101508.63;4975664;28;20372;-66
2022/02/03 07:29:01;;;;;;;30.23;9.63;;;;;;;12.00;100.00;101497.03;4975606;28;20396;-65
2022/02/03 07:31:27;;;;;;;21.35;8.90;;;;;;;12.14;100.00;101484.63;4958392;28;20514;-67
2022/02/03 07:33:54;;;;;;;26.42;9.70;;;;;;;12.11;100.00;101509.13;4975902;28;20051;-65
2022/02/03 07:36:20;;;;;;;18.20;8.73;;;;;;;12.19;100.00;101481.38;4976165;28;20117;-67
2022/02/03 07:38:46;;;;;;;23.05;9.20;;;;;;;12.10;100.00;101486.03;4975762;28;20050;-66
2022/02/03 07:41:11;;;;;;;18.23;8.53;;;;;;;12.13;100.00;101472.25;4942901;28;20073;-66
2022/02/03 07:43:37;;;;;;;23.00;9.13;;;;;;;11.99;100.00;101486.47;4958379;28;20324;-67
2022/02/03 07:46:03;;;;;;;25.60;9.37;;;;;;;11.85;100.00;101482.81;4958155;28;20113;-66
2022/02/03 07:48:28;;;;;;;18.90;9.70;;;;;;;12.01;100.00;101477.28;4959069;28;20277;-66
2022/02/03 07:50:55;;;;;;;20.25;8.27;;;;;;;12.05;100.00;101475.06;4975157;28;20047;-67
2022/02/03 07:53:21;;;;;;;19.25;8.73;;;;;;;12.14;100.00;101471.22;4975642;28;20045;-67
2022/02/03 07:55:47;;;;;;;20.92;9.20;;;;;;;12.13;100.00;101466.06;4958304;28;20035;-67
2022/02/03 07:58:12;;;;;;;17.10;8.27;;;;;;;11.99;100.00;101481.13;4958112;28;20554;-68
2022/02/03 08:00:38;;;;;;;16.15;8.13;;;;;;;12.15;100.00;101474.75;4958045;28;20522;-67
2022/02/03 08:03:09;;;;;;;20.40;8.20;;;;;;;11.85;100.00;101474.78;4975283;28;20062;-67
2022/02/03 08:05:36;;;;;;;22.20;8.77;;;;;;;11.92;100.00;101491.78;4973688;28;20336;-67
2022/02/03 08:08:19;;;;;;;15.57;7.93;;;;;;;12.34;100.00;101484.00;4957540;28;20035;-67
2022/02/03 08:10:54;;;;;;;17.60;7.93;;;;;;;12.22;100.00;101469.44;4975012;28;20089;-66
2022/02/03 08:16:22;;;;;;;24.38;9.20;;;;;;;12.23;100.00;101471.94;4957850;28;20107;-68
2022/02/03 08:18:51;;;;;;;19.45;8.25;;;;;;;12.33;100.00;101466.25;4974397;28;20126;-67
2022/02/03 08:21:18;;;;;;;17.13;8.07;;;;;;;12.23;100.00;101479.97;4975025;28;20115;-66
2022/02/03 08:31:21;;;;;;;19.73;8.57;;;;;;;12.08;100.00;101466.63;4975120;28;20109;-64
2022/02/03 08:33:50;;;;;;;21.52;9.35;;;;;;;12.20;100.00;101475.00;4957351;28;20502;-66
2022/02/03 08:36:16;;;;;;;19.38;8.77;;;;;;;11.94;100.00;101457.59;4957792;28;20034;-66
2022/02/03 08:41:07;;;;;;;24.13;8.55;;;;;;;12.12;100.00;101459.84;4957508;28;20039;-65
2022/02/03 08:43:35;;;;;;;26.08;9.52;;;;;;;12.05;100.00;101456.28;4941409;28;20057;-67
2022/02/03 08:46:04;;;;;;;18.75;9.13;;;;;;;11.85;100.00;101458.69;4974314;28;20061;-66
2022/02/03 08:48:31;;;;;;;23.63;8.52;;;;;;;11.66;100.00;101452.94;4957324;28;20046;-66
2022/02/03 08:50:57;;;;;;;18.20;8.27;;;;;;;11.77;100.00;101462.34;4957577;28;20047;-66
2022/02/03 08:53:36;;;;;;;18.58;9.25;;;;;;;11.57;100.00;101438.81;4956957;28;20626;-66
2022/02/03 09:57:43;;;;;;;22.85;9.93;;;;;;;11.90;100.00;101411.56;4977629;28;20440;-65
2022/02/03 10:00:24;;;;;;;23.08;10.93;;;;;;;12.14;100.00;101403.38;4948284;28;20096;-66
2022/02/03 10:02:58;;;;;;;25.52;10.38;;;;;;;11.99;100.00;101406.06;4977624;28;20482;-66
2022/02/03 10:05:39;;;;;;;23.45;10.20;;;;;;;12.17;100.00;101414.53;4960162;28;20046;-66
2022/02/03 10:08:11;;;;;;;24.15;10.32;;;;;;;12.04;100.00;101417.91;4960180;28;20074;-66
2022/02/03 10:10:37;;;;;;;21.75;10.23;;;;;;;11.61;100.00;101447.28;4977409;28;20170;-66
2022/02/03 10:13:16;;;;;;;23.45;9.27;;;;;;;12.26;100.00;101428.63;4960226;28;20122;-66
2022/02/03 10:15:41;;;;;;;19.48;9.38;;;;;;;11.97;100.00;101424.19;4976888;28;20546;-65
2022/02/03 10:18:22;;;;;;;19.92;9.43;;;;;;;11.59;100.00;101431.41;4976978;28;20039;-66
2022/02/03 10:20:48;;;;;;;25.30;10.88;;;;;;;11.47;100.00;101419.50;4976919;28;20484;-65
2022/02/03 10:23:20;;;;;;;20.27;9.82;;;;;;;11.68;100.00;101425.94;4960317;28;20495;-66
2022/02/03 10:25:49;;;;;;;20.77;9.35;;;;;;;11.85;100.00;101422.03;4960528;28;20134;-66
2022/02/03 10:28:16;;;;;;;19.63;10.52;;;;;;;11.90;100.00;101424.13;4944213;28;20074;-66
2022/02/03 10:30:49;;;;;;;18.33;9.85;;;;;;;12.18;100.00;101410.81;4977053;28;20526;-66
2022/02/03 10:33:15;;;;;;;20.73;10.13;;;;;;;12.22;100.00;101408.59;4977409;28;20484;-67
2022/02/03 10:35:54;;;;;;;31.80;10.07;;;;;;;12.62;100.00;101405.41;4943553;28;20106;-66
2022/02/03 10:54:15;;;;;;;16.98;7.53;;;;;;;12.26;100.00;101379.56;4977071;28;20415;-67
2022/02/03 11:02:32;;;;;;;16.37;7.70;;;;;;;12.40;100.00;101375.94;4976213;28;20546;-67
2022/02/03 11:12:53;;;;;;;21.45;10.35;;;;;;;12.10;100.00;101365.38;4959345;28;20043;-67
2022/02/03 11:15:23;;;;;;;19.63;9.70;;;;;;;12.28;100.00;101364.09;4977121;28;20035;-66
2022/02/03 11:17:50;;;;;;;24.20;9.77;;;;;;;12.01;100.00;101350.47;4976407;28;20134;-67
2022/02/03 11:20:18;;;;;;;23.30;9.90;;;;;;;12.12;100.00;101357.97;4960115;28;20042;-67
2022/02/03 11:23:09;;;;;;;25.30;10.70;;;;;;;12.28;100.00;101350.69;4960846;28;20053;-69
2022/02/03 11:28:32;;;;;;;22.60;10.68;;;;;;;12.62;100.00;101349.91;4976468;28;20054;-66
2022/02/03 12:11:46;;;;;;;26.73;10.13;;;;;;;12.46;100.00;101286.66;4944767;28;20419;-67
2022/02/03 12:14:40;;;;;;;23.10;9.43;;;;;;;13.03;100.00;101278.44;4975011;28;20553;-66
2022/02/03 12:17:26;;;;;;;22.63;9.25;;;;;;;12.75;100.00;101260.59;4974895;28;20101;-66
2022/02/03 12:20:26;;;;;;;22.60;9.77;;;;;;;12.81;100.00;101266.19;4957646;28;20468;-65
2022/02/03 12:23:21;;;;;;;21.88;8.20;;;;;;;12.67;100.00;101254.56;4974719;28;20039;-66
2022/02/03 12:26:03;;;;;;;20.83;9.40;;;;;;;12.79;100.00;101274.41;4973651;28;20514;-65
2022/02/03 12:28:39;;;;;;;25.30;11.57;;;;;;;12.85;100.00;101268.28;4959861;28;20772;-66
2022/02/03 12:39:02;;;;;;;24.38;11.20;;;;;;;12.79;100.00;101244.91;4957318;28;20070;-65
2022/02/03 12:42:42;;;;;;;27.45;11.18;;;;;;;12.37;100.00;101241.41;4974506;28;20065;-67
2022/02/03 12:44:26;;;;;;;28.93;11.47;;;;;;;12.24;100.00;101237.63;4944588;28;20073;-66
2022/02/03 12:46:54;;;;;;;21.20;10.60;;;;;;;12.66;100.00;101228.75;4938586;29;20293;-65
2022/02/03 12:49:21;;;;;;;26.27;10.93;;;;;;;12.42;100.00;101237.09;4922169;29;20758;-66
2022/02/03 12:51:52;;;;;;;23.30;10.90;;;;;;;12.96;100.00;101223.06;4907872;29;20046;-67
2022/02/03 12:54:18;;;;;;;27.20;10.97;;;;;;;13.00;100.00;101217.13;4939003;29;20039;-66
2022/02/03 12:56:44;;;;;;;23.75;10.55;;;;;;;12.75;100.00;101231.06;4938118;29;20281;-64
2022/02/03 12:59:14;;;;;;;23.08;9.70;;;;;;;12.98;100.00;101232.59;4922108;29;20476;-68
2022/02/03 13:01:41;;;;;;;24.50;10.00;;;;;;;12.63;100.00;101224.59;4954920;29;20048;-67
2022/02/03 13:04:14;;;;;;;25.07;9.60;;;;;;;12.80;100.00;101227.78;4922142;29;20289;-67
2022/02/03 13:06:54;;;;;;;24.07;10.13;;;;;;;12.60;100.00;101225.84;4954816;29;20816;-66
2022/02/03 13:09:53;;;;;;;22.92;10.27;;;;;;;13.00;100.00;101210.91;4954401;29;20281;-64
2022/02/03 13:12:22;;;;;;;18.87;9.17;;;;;;;12.64;100.00;101212.84;4936996;29;20058;-67
2022/02/03 13:14:57;;;;;;;22.10;9.93;;;;;;;12.43;100.00;101216.47;4954751;29;20766;-66
2022/02/03 13:17:28;;;;;;;28.58;10.27;;;;;;;12.40;100.00;101228.41;4923866;29;20304;-66
2022/02/03 13:20:07;;;;;;;16.80;9.02;;;;;;;12.37;100.00;101228.00;4938397;29;20547;-66
2022/02/03 13:22:48;;;;;;;25.80;10.57;;;;;;;12.33;100.00;101214.16;4937931;29;20376;-66
2022/02/03 13:25:40;;;;;;;17.83;9.35;;;;;;;12.19;100.00;101219.41;4940847;29;20488;-66
2022/02/03 13:28:11;;;;;;;18.83;9.27;;;;;;;12.17;100.00;101216.13;4941331;29;20043;-65
2022/02/03 13:30:48;;;;;;;23.10;10.20;;;;;;;12.57;100.00;101209.31;4922875;29;20122;-65
2022/02/03 13:33:19;;;;;;;21.20;10.10;;;;;;;12.31;100.00;101214.34;4955182;29;20077;-67
2022/02/03 13:38:28;;;;;;;18.33;9.18;;;;;;;12.14;100.00;101208.47;4954605;29;20131;-66
2022/02/03 13:41:12;;;;;;;20.73;8.43;;;;;;;12.38;100.00;101217.06;4954690;29;20039;-66
2022/02/03 13:43:42;;;;;;;19.23;10.15;;;;;;;12.72;100.00;101207.31;4937620;29;20460;-68
2022/02/03 13:46:09;;;;;;;21.75;9.48;;;;;;;12.08;100.00;101208.41;4964230;28;20591;-67
2022/02/03 13:48:38;;;;;;;20.15;11.18;;;;;;;12.01;100.00;101208.41;4974270;28;20066;-66
2022/02/03 13:51:08;;;;;;;25.45;11.18;;;;;;;11.97;100.00;101209.75;4958518;28;20479;-66
2022/02/03 13:53:40;;;;;;;32.40;13.52;;;;;;;11.88;100.00;101196.50;4960550;28;20482;-65
2022/02/03 14:28:42;;;;;;;32.65;15.82;;;;;;;11.71;100.00;101171.03;4978721;28;20117;-66
2022/02/03 14:31:09;;;;;;;43.38;17.00;;;;;;;11.41;100.00;101171.22;4960496;28;20479;-65
2022/02/03 14:33:39;;;;;;;38.28;17.85;;;;;;;11.41;100.00;101157.81;4961904;28;20043;-66
2022/02/03 14:36:09;;;;;;;45.78;18.55;;;;;;;11.83;100.00;101153.41;4961276;28;20106;-68
2022/02/03 14:41:23;;;;;;;40.55;17.95;;;;;;;11.60;100.00;101143.75;4979077;28;20177;-68
2022/02/03 14:43:50;;;;;;;43.33;17.80;;;;;;;11.47;100.00;101147.16;4979322;28;20391;-67
2022/02/03 14:46:16;;;;;;;34.63;16.98;;;;;;;11.89;100.00;101139.22;4961317;28;20523;-69
2022/02/03 14:48:44;;;;;;;39.95;17.88;;;;;;;11.60;100.00;101150.97;4977020;28;20039;-67
2022/02/03 14:51:18;;;;;;;38.10;18.55;;;;;;;11.53;100.00;101147.41;4978154;28;20046;-67
2022/02/03 14:53:55;;;;;;;37.70;17.55;;;;;;;11.83;100.00;101139.16;4978000;28;20046;-66
2022/02/03 14:59:07;;;;;;;43.58;18.23;;;;;;;11.48;100.00;101134.59;4962892;28;20054;-67
2022/02/03 15:01:33;;;;;;;39.65;18.23;;;;;;;11.86;100.00;101128.88;4976984;28;20399;-66
2022/02/03 15:04:02;;;;;;;39.90;19.35;;;;;;;11.80;100.00;101128.84;4959464;28;20038;-65
2022/02/03 15:06:35;;;;;;;44.67;19.63;;;;;;;12.31;100.00;101135.75;4960055;28;20399;-67
2022/02/03 15:12:03;;;;;;;34.70;18.98;;;;;;;11.84;100.00;101138.97;4976285;28;20403;-68
2022/02/03 15:14:25;;;;;;;46.17;20.80;;;;;;;12.25;100.00;101125.81;4975571;28;20361;-68
2022/02/03 15:16:51;;;;;;;52.15;21.45;;;;;;;12.03;100.00;101117.88;4976205;28;20102;-67
2022/02/03 15:19:17;;;;;;;43.50;18.65;;;;;;;12.00;100.00;101118.25;4959678;28;20510;-65
2022/02/03 15:21:43;;;;;;;40.22;20.25;;;;;;;12.14;100.00;101117.31;4975794;28;20047;-66
2022/02/03 15:24:09;;;;;;;42.35;18.90;;;;;;;11.80;100.00;101118.97;4958518;28;20043;-69
2022/02/03 15:26:35;;;;;;;;;;;;;;;11.81;100.00;101109.91;4976400;28;20403;-68
2022/02/03 15:29:01;;;;;;;33.47;16.83;;;;;;;11.90;100.00;101102.53;4975576;28;19920;-66
2022/02/03 15:31:32;;;;;;;38.65;18.42;;;;;;;11.64;100.00;101097.84;4975740;28;20045;-66
2022/02/03 15:34:08;;;;;;;40.75;17.95;;;;;;;12.13;100.00;101096.09;4975952;28;20480;-67
2022/02/03 15:36:36;;;;;;;40.28;18.70;;;;;;;11.94;100.00;101093.06;4942690;28;20089;-67
2022/02/03 15:39:07;;;;;;;42.10;19.35;;;;;;;12.02;100.00;101105.50;4975798;28;20435;-63
2022/02/03 15:41:33;;;;;;;33.75;18.45;;;;;;;11.77;100.00;101100.59;4943370;28;20447;-68
2022/02/03 15:44:00;;;;;;;31.27;17.85;;;;;;;12.07;100.00;101103.06;4958423;28;20058;-68
2022/02/03 15:46:28;;;;;;;34.83;17.65;;;;;;;12.35;100.00;101109.38;4958174;28;20058;-67
2022/02/03 15:56:57;;;;;;;35.55;15.98;;;;;;;11.79;100.00;101100.38;4945300;28;20455;-66
2022/02/03 16:13:36;;;;;;;27.15;14.38;;;;;;;11.84;100.00;101103.31;4974607;28;20042;-68
2022/02/03 16:18:31;;;;;;;33.05;15.90;;;;;;;11.86;100.00;101102.09;4958153;28;20066;-68
2022/02/03 16:21:05;;;;;;;28.90;14.30;;;;;;;11.60;100.00;101111.63;4942586;28;20411;-67
2022/02/03 16:26:38;;;;;;;29.70;15.90;;;;;;;12.11;100.00;101098.94;4944206;28;20494;-67
2022/02/03 16:43:21;;;;;;;29.42;13.95;;;;;;;11.57;100.00;101105.81;4958646;28;20550;-67
2022/02/03 16:53:20;;;;;;;27.13;14.68;;;;;;;11.68;100.00;101104.44;4974914;28;20502;-67
2022/02/03 16:55:47;;;;;;;29.10;15.15;;;;;;;11.92;100.00;101097.78;4958767;28;20467;-68
2022/02/03 16:58:13;;;;;;;32.60;15.50;;;;;;;11.78;100.00;101088.84;4956654;28;20487;-66
2022/02/03 17:00:40;;;;;;;29.65;15.68;;;;;;;12.03;100.00;101099.94;4942140;28;20058;-67
2022/02/03 17:03:06;;;;;;;28.17;13.95;;;;;;;11.69;100.00;101101.59;4974263;28;20039;-68
2022/02/03 17:05:37;;;;;;;31.38;15.70;;;;;;;11.61;100.00;101089.16;4974638;28;20043;-67
2022/02/03 17:08:04;;;;;;;32.65;16.30;;;;;;;11.67;100.00;101086.72;4957424;28;20051;-68
2022/02/03 17:10:30;;;;;;;30.70;14.90;;;;;;;11.61;100.00;101099.88;4957722;28;20138;-67
2022/02/03 17:12:55;;;;;;;38.53;17.38;;;;;;;11.69;100.00;101103.41;4940568;28;20134;-67
2022/02/03 17:15:21;;;;;;;30.20;15.70;;;;;;;11.53;100.00;101097.34;4957363;28;20049;-68
2022/02/03 17:17:50;;;;;;;29.08;15.93;;;;;;;11.69;100.00;101092.69;4974210;28;20031;-69
2022/02/03 17:20:21;;;;;;;32.95;15.55;;;;;;;11.72;100.00;101078.91;4974227;28;20141;-68
2022/02/03 17:22:49;;;;;;;33.58;14.57;;;;;;;11.51;100.00;101094.03;4941155;28;20083;-68
2022/02/03 17:25:22;;;;;;;31.83;15.10;;;;;;;11.63;100.00;101097.00;4975458;28;20488;-67
2022/02/03 17:28:14;;;;;;;33.25;16.48;;;;;;;11.74;100.00;101098.28;4978038;28;20069;-68
2022/02/03 17:30:48;;;;;;;30.60;17.30;;;;;;;11.70;100.00;101097.03;4961198;28;20403;-68
2022/02/03 18:35:23;;;;;;;53.28;23.90;;;;;;;11.95;100.00;101109.97;4976793;28;20042;-70
2022/02/03 18:51:11;;;;;;;56.60;27.02;;;;;;;12.08;100.00;101104.72;4977401;28;20041;-69
2022/02/03 18:53:54;;;;;;;52.60;26.70;;;;;;;11.93;100.00;101098.59;4959952;28;20046;-69
2022/02/03 18:59:06;;;;;;;51.60;27.35;;;;;;;11.84;100.00;101104.13;4977175;28;20399;-69
2022/02/03 19:15:48;;;;;;;60.80;28.58;;;;;;;11.82;100.00;101095.47;4975519;28;20039;-66
2022/02/03 19:56:28;;;;;;;61.35;29.27;;;;;;;11.75;100.00;101097.25;4959924;28;20074;-67
2022/02/03 20:11:48;;;;;;;56.15;27.90;;;;;;;12.18;100.00;101089.06;4975169;28;20046;-67
2022/02/03 20:14:14;;;;;;;60.85;29.77;;;;;;;12.08;100.00;101104.72;4975109;28;20047;-63
2022/02/03 20:16:41;;;;;;;64.67;29.93;;;;;;;11.98;100.00;101088.97;4958540;28;20061;-67
2022/02/03 20:19:07;;;;;;;59.42;28.30;;;;;;;12.34;100.00;101097.81;4958077;28;20097;-68
2022/02/03 20:21:34;;;;;;;61.90;30.67;;;;;;;12.49;100.00;101094.97;4976177;28;20047;-68
2022/02/03 20:24:02;;;;;;;58.60;29.08;;;;;;;12.55;100.00;101088.78;4958886;28;20412;-68
2022/02/03 20:26:28;;;;;;;57.22;28.25;;;;;;;12.35;100.00;101088.72;4975038;28;20053;-68
2022/02/03 20:28:53;;;;;;;56.17;26.97;;;;;;;12.15;100.00;101089.47;4925992;28;20054;-68
2022/02/03 20:31:19;;;;;;;58.90;27.73;;;;;;;12.25;100.00;101078.38;4957314;28;20122;-66
2022/02/03 20:33:44;;;;;;;56.53;27.43;;;;;;;12.07;100.00;101080.78;4974341;28;20043;-69
2022/02/03 20:36:10;;;;;;;59.55;28.73;;;;;;;11.97;100.00;101076.59;4974603;28;20061;-68
2022/02/03 20:38:36;;;;;;;60.77;29.90;;;;;;;11.95;100.00;101077.78;4974670;28;20069;-67
2022/02/03 20:41:03;;;;;;;62.42;29.35;;;;;;;11.91;100.00;101077.38;4974793;28;20269;-67
2022/02/03 20:43:29;;;;;;;64.93;30.58;;;;;;;12.03;100.00;101083.03;4957186;28;20046;-69
2022/02/03 20:45:54;;;;;;;61.95;29.35;;;;;;;11.98;100.00;101069.34;4941329;28;20403;-67
2022/02/03 20:48:21;;;;;;;62.25;28.73;;;;;;;12.05;100.00;101070.25;4957005;28;20081;-67
2022/02/03 20:50:49;;;;;;;61.38;29.98;;;;;;;12.17;100.00;101071.31;4957217;28;20543;-67
2022/02/03 20:53:16;;;;;;;63.65;28.95;;;;;;;11.99;100.00;101076.38;4957025;28;20407;-67
2022/02/03 20:55:43;;;;;;;62.78;29.25;;;;;;;11.95;100.00;101069.75;4941388;28;20046;-67
2022/02/03 20:58:13;;;;;;;65.70;29.30;;;;;;;11.93;100.00;101080.69;4974368;28;20495;-67
2022/02/03 21:00:44;;;;;;;62.38;29.13;;;;;;;12.00;100.00;101083.41;4957642;28;20538;-67
2022/02/03 21:03:20;;;;;;;68.43;28.83;;;;;;;11.98;100.00;101072.03;4975330;28;20097;-66
2022/02/03 21:05:45;;;;;;;62.75;28.67;;;;;;;12.11;100.00;101072.13;4974570;28;20038;-67
2022/02/03 21:08:11;;;;;;;65.15;29.42;;;;;;;11.96;100.00;101063.38;4925501;28;20062;-67
2022/02/03 21:10:37;;;;;;;67.03;29.33;;;;;;;11.90;100.00;101068.50;4974150;28;20503;-66
2022/02/03 21:13:03;;;;;;;61.38;28.35;;;;;;;12.14;100.00;101078.97;4956865;28;20070;-67
2022/02/03 21:15:36;;;;;;;58.40;26.13;;;;;;;12.00;100.00;101076.19;4956581;28;20075;-68
2022/02/03 21:18:06;;;;;;;60.20;28.10;;;;;;;12.38;100.00;101069.53;4973963;28;20503;-68
2022/02/03 21:20:33;;;;;;;63.22;28.92;;;;;;;12.41;100.00;101079.88;4974232;28;20510;-67
2022/02/03 21:22:59;;;;;;;56.35;27.13;;;;;;;12.05;100.00;101072.94;4974183;28;20516;-68
2022/02/03 21:25:37;;;;;;;64.07;29.33;;;;;;;12.14;100.00;101070.91;4974049;28;20127;-68
2022/02/03 21:28:11;;;;;;;66.55;29.13;;;;;;;12.07;100.00;101060.16;4974377;28;20043;-68
2022/02/03 21:30:37;;;;;;;64.50;29.25;;;;;;;11.80;100.00;101060.00;4974747;28;20035;-67
2022/02/03 21:33:05;;;;;;;64.93;30.38;;;;;;;11.81;100.00;101056.31;4956889;28;20043;-68
2022/02/03 21:35:31;;;;;;;63.10;29.05;;;;;;;11.67;100.00;101059.94;4974349;28;20566;-63
2022/02/03 21:37:57;;;;;;;67.45;30.20;;;;;;;12.12;100.00;101060.38;4974005;28;20066;-69
2022/02/03 21:40:23;;;;;;;66.18;28.75;;;;;;;12.12;100.00;101070.31;4957129;28;20042;-68
2022/02/03 21:42:50;;;;;;;59.55;28.52;;;;;;;11.97;100.00;101070.38;4973982;28;20038;-68
2022/02/03 21:45:18;;;;;;;62.08;27.90;;;;;;;12.28;100.00;101059.19;4956777;28;20082;-67
2022/02/03 21:47:45;;;;;;;59.65;28.42;;;;;;;12.25;100.00;101075.69;4973714;28;20584;-66
2022/02/03 21:50:11;;;;;;;61.67;30.58;;;;;;;12.08;100.00;101077.91;4974499;28;20480;-67
2022/02/03 21:52:46;;;;;;;60.40;27.80;;;;;;;11.94;100.00;101065.41;4973903;28;20479;-66
2022/02/03 21:55:12;;;;;;;57.28;28.08;;;;;;;11.96;100.00;101066.03;4957974;28;20380;-68
2022/02/03 21:57:41;;;;;;;60.70;28.27;;;;;;;11.95;100.00;101062.56;4974058;28;20395;-67